Time;durP1;ratioP1;P1;durP2;ratioP2;P2;SDS_P1;SDS_P2;PMS_P1;PMS_P2;Temp;Humidity;BMP_temperature;BMP_pressure;BME280_temperature;BME280_humidity;BME280_pressure;Samples;Min_cycle;Max_cycle;Signal;HPM_P1;HPM_P2
2023/07/25 00:02:22;;;;;;;5.72;3.58;;;12.60;99.90;;;;;;5082541;28;20042;-80
2023/07/25 00:04:47;;;;;;;6.82;3.60;;;12.60;99.90;;;;;;5076971;28;20041;-80
2023/07/25 00:07:13;;;;;;;8.35;4.00;;;12.70;99.90;;;;;;5072583;28;20082;-80
2023/07/25 00:09:38;;;;;;;4.90;3.83;;;12.60;99.90;;;;;;5079437;28;20194;-80
2023/07/25 00:12:04;;;;;;;5.25;3.80;;;12.60;99.90;;;;;;5086816;28;20122;-80
2023/07/25 00:14:34;;;;;;;7.45;3.60;;;12.70;99.90;;;;;;5070979;28;20045;-80
2023/07/25 00:17:01;;;;;;;5.95;3.30;;;12.70;99.90;;;;;;5086987;28;20036;-80
2023/07/25 00:19:27;;;;;;;8.88;3.95;;;12.60;99.90;;;;;;5071599;28;20485;-80
2023/07/25 00:21:53;;;;;;;6.70;3.75;;;12.60;99.90;;;;;;5073417;28;20132;-80
2023/07/25 00:24:18;;;;;;;4.80;3.70;;;12.60;99.90;;;;;;5091353;28;20047;-80
2023/07/25 00:26:44;;;;;;;5.57;3.65;;;12.50;99.90;;;;;;5078754;28;20457;-80
2023/07/25 00:29:09;;;;;;;11.93;3.95;;;12.50;99.90;;;;;;5083254;28;20141;-80
2023/07/25 00:31:35;;;;;;;7.63;3.72;;;12.60;99.90;;;;;;5077651;28;20132;-79
2023/07/25 00:34:03;;;;;;;7.25;3.72;;;12.70;99.90;;;;;;5077268;28;20053;-80
2023/07/25 00:36:29;;;;;;;7.43;3.67;;;12.50;99.90;;;;;;5069891;28;20406;-80
2023/07/25 00:38:55;;;;;;;6.60;3.63;;;12.50;99.90;;;;;;5088599;28;20102;-80
2023/07/25 00:41:20;;;;;;;9.10;3.67;;;12.50;99.90;;;;;;5087520;28;20431;-80
2023/07/25 00:43:46;;;;;;;8.50;3.53;;;12.50;99.90;;;;;;5078128;28;20047;-80
2023/07/25 00:46:12;;;;;;;9.15;4.35;;;12.40;99.90;;;;;;5085280;28;20036;-80
2023/07/25 00:48:37;;;;;;;8.85;3.65;;;12.30;99.90;;;;;;5080344;28;20502;-80
2023/07/25 00:51:04;;;;;;;7.10;3.25;;;12.80;99.90;;;;;;5090322;28;20051;-80
2023/07/25 00:53:30;;;;;;;5.68;3.80;;;12.30;99.90;;;;;;5080974;28;20470;-80
2023/07/25 00:55:56;;;;;;;9.70;3.97;;;12.20;99.90;;;;;;5080402;28;20076;-80
2023/07/25 00:58:21;;;;;;;4.85;3.58;;;12.60;99.90;;;;;;5086901;28;20406;-80
2023/07/25 01:00:47;;;;;;;6.35;4.43;;;12.20;99.90;;;;;;5081565;28;20052;-80
2023/07/25 01:03:13;;;;;;;7.13;3.75;;;12.30;99.90;;;;;;5074160;28;20120;-80
2023/07/25 01:05:43;;;;;;;6.47;3.90;;;12.00;99.90;;;;;;5087384;28;20101;-80
2023/07/25 01:08:09;;;;;;;9.43;3.90;;;12.00;99.90;;;;;;5081021;28;20419;-80
2023/07/25 01:10:38;;;;;;;6.88;3.85;;;12.10;99.90;;;;;;5080747;28;20119;-80
2023/07/25 01:13:05;;;;;;;4.93;3.63;;;12.00;99.90;;;;;;5086996;28;20037;-80
2023/07/25 01:15:31;;;;;;;5.40;3.60;;;12.00;99.90;;;;;;5087373;28;20086;-80
2023/07/25 01:17:57;;;;;;;8.68;3.83;;;12.00;99.90;;;;;;5088179;28;20029;-80
2023/07/25 01:20:24;;;;;;;8.32;3.53;;;11.90;99.90;;;;;;5089405;28;20049;-80
2023/07/25 01:22:51;;;;;;;6.80;3.78;;;12.20;99.90;;;;;;5087428;28;20062;-80
2023/07/25 01:25:16;;;;;;;6.30;3.80;;;11.90;99.90;;;;;;5075910;28;20040;-80
2023/07/25 01:27:42;;;;;;;10.43;4.63;;;11.80;99.90;;;;;;5069836;28;20060;-80
2023/07/25 01:30:08;;;;;;;9.82;4.38;;;11.80;99.90;;;;;;5084291;28;20048;-80
2023/07/25 01:32:34;;;;;;;7.10;3.78;;;11.70;99.90;;;;;;5069728;28;20087;-80
2023/07/25 01:35:00;;;;;;;5.53;3.75;;;11.70;99.90;;;;;;5080021;28;20083;-80
2023/07/25 01:37:25;;;;;;;10.70;3.92;;;11.70;99.90;;;;;;5086649;28;20048;-80
2023/07/25 01:39:51;;;;;;;8.32;3.78;;;11.60;99.90;;;;;;5086479;28;20040;-80
2023/07/25 01:42:17;;;;;;;7.15;4.38;;;11.60;99.90;;;;;;5070391;28;20037;-80
2023/07/25 01:44:42;;;;;;;8.23;3.63;;;11.60;99.90;;;;;;5073712;28;20126;-80
2023/07/25 01:47:08;;;;;;;7.65;3.88;;;11.60;99.90;;;;;;5087526;28;20051;-80
2023/07/25 01:49:33;;;;;;;5.28;3.67;;;11.50;99.90;;;;;;5080745;28;20032;-79
2023/07/25 01:51:59;;;;;;;6.72;3.92;;;11.50;99.90;;;;;;5089783;28;20131;-80
2023/07/25 01:54:25;;;;;;;5.88;3.88;;;11.50;99.90;;;;;;5082941;28;20107;-80
2023/07/25 01:56:54;;;;;;;9.02;4.03;;;11.60;99.90;;;;;;5072528;28;20387;-80
2023/07/25 01:59:19;;;;;;;5.88;3.85;;;11.60;99.90;;;;;;5083249;28;20085;-80
2023/07/25 02:01:45;;;;;;;8.02;3.90;;;11.70;99.90;;;;;;5088588;28;20036;-80
2023/07/25 02:04:10;;;;;;;6.72;3.65;;;11.60;99.90;;;;;;5070059;28;20097;-80
2023/07/25 02:06:36;;;;;;;6.38;3.75;;;11.80;99.90;;;;;;5086723;28;20406;-80
2023/07/25 02:09:02;;;;;;;11.10;4.38;;;11.60;99.90;;;;;;5071476;28;20044;-80
2023/07/25 02:11:28;;;;;;;8.27;4.75;;;11.70;99.90;;;;;;5068276;28;20120;-80
2023/07/25 02:13:54;;;;;;;5.47;3.55;;;11.70;99.90;;;;;;5068757;28;20871;-80
2023/07/25 02:16:19;;;;;;;9.68;4.05;;;11.70;99.90;;;;;;5077147;28;20454;-80
2023/07/25 02:18:45;;;;;;;5.65;4.03;;;11.70;99.90;;;;;;5086582;28;20122;-80
2023/07/25 02:21:11;;;;;;;7.22;3.75;;;11.70;99.90;;;;;;5086554;28;20051;-80
2023/07/25 02:23:36;;;;;;;6.97;3.83;;;11.70;99.90;;;;;;5084907;28;20074;-80
2023/07/25 02:26:02;;;;;;;10.88;4.18;;;11.70;99.90;;;;;;5088003;28;20134;-80
2023/07/25 02:28:27;;;;;;;5.50;3.78;;;11.70;99.90;;;;;;5081817;28;20560;-80
2023/07/25 02:30:53;;;;;;;7.85;3.60;;;11.70;99.90;;;;;;5084406;28;20827;-80
2023/07/25 02:33:19;;;;;;;9.60;4.07;;;11.70;99.90;;;;;;5071390;28;20043;-80
2023/07/25 02:35:44;;;;;;;10.02;3.88;;;11.70;99.90;;;;;;5050117;28;20110;-80
2023/07/25 02:38:10;;;;;;;10.63;3.80;;;11.70;99.90;;;;;;5071540;28;20040;-80
2023/07/25 02:40:36;;;;;;;6.88;3.78;;;11.70;99.90;;;;;;5086376;28;20048;-80
2023/07/25 02:43:04;;;;;;;10.60;4.20;;;11.60;99.90;;;;;;5052646;28;20441;-80
2023/07/25 02:45:30;;;;;;;8.15;4.10;;;11.90;99.90;;;;;;5068010;28;20406;-79
2023/07/25 02:47:55;;;;;;;5.35;3.72;;;11.70;99.90;;;;;;5064196;28;20032;-80
2023/07/25 02:50:21;;;;;;;8.05;4.10;;;11.60;99.90;;;;;;5050643;28;20067;-80
2023/07/25 02:52:47;;;;;;;8.70;3.78;;;11.60;99.90;;;;;;5076124;28;20060;-80
2023/07/25 02:55:12;;;;;;;7.18;4.07;;;11.60;99.90;;;;;;5066155;28;20056;-80
2023/07/25 02:57:38;;;;;;;9.52;4.30;;;11.60;99.90;;;;;;5066671;28;20049;-80
2023/07/25 03:00:06;;;;;;;8.35;4.20;;;11.60;99.90;;;;;;5086502;28;20044;-80
2023/07/25 03:02:31;;;;;;;9.13;3.78;;;11.60;99.90;;;;;;5076510;28;20048;-80
2023/07/25 03:04:57;;;;;;;6.90;3.45;;;11.60;99.90;;;;;;5066709;28;20044;-80
2023/07/25 03:07:22;;;;;;;9.13;3.83;;;11.60;99.90;;;;;;5071692;28;20052;-80
2023/07/25 03:09:48;;;;;;;11.05;4.45;;;11.60;99.90;;;;;;5056757;28;20132;-80
2023/07/25 03:12:14;;;;;;;6.10;3.90;;;11.60;99.90;;;;;;5067104;28;20048;-80
2023/07/25 03:14:39;;;;;;;8.40;3.30;;;11.80;99.90;;;;;;5071102;28;20052;-80
2023/07/25 03:17:05;;;;;;;6.50;3.92;;;11.60;99.90;;;;;;5071372;28;20055;-80
2023/07/25 03:19:30;;;;;;;7.70;3.53;;;11.60;99.90;;;;;;5085119;28;20044;-80
2023/07/25 03:21:56;;;;;;;4.97;3.78;;;11.50;99.90;;;;;;5086379;28;20051;-80
2023/07/25 03:24:22;;;;;;;8.85;3.90;;;11.70;99.90;;;;;;5084971;28;20123;-80
2023/07/25 03:26:47;;;;;;;10.57;3.72;;;11.50;99.90;;;;;;5068010;28;20101;-80
2023/07/25 03:29:13;;;;;;;9.05;3.63;;;11.50;99.90;;;;;;5068495;28;20089;-80
2023/07/25 03:31:39;;;;;;;6.80;4.03;;;11.70;99.90;;;;;;5076030;28;20051;-80
2023/07/25 03:34:04;;;;;;;8.52;4.15;;;11.50;99.90;;;;;;5059388;28;20044;-80
2023/07/25 03:36:30;;;;;;;5.47;3.55;;;11.50;99.90;;;;;;5086033;28;20059;-80
2023/07/25 03:38:55;;;;;;;8.02;3.70;;;11.50;99.90;;;;;;5085498;28;20039;-80
2023/07/25 03:41:21;;;;;;;10.00;4.45;;;11.60;99.90;;;;;;5076432;28;20044;-80
2023/07/25 03:43:46;;;;;;;6.47;4.03;;;11.60;99.90;;;;;;5064401;28;20079;-80
2023/07/25 03:46:12;;;;;;;8.15;4.15;;;11.70;99.90;;;;;;5075573;28;20075;-80
2023/07/25 03:48:38;;;;;;;8.05;4.25;;;11.80;99.90;;;;;;5079986;28;21025;-80
2023/07/25 03:51:04;;;;;;;9.30;4.13;;;12.00;99.90;;;;;;5076207;28;20051;-80
2023/07/25 03:53:29;;;;;;;8.18;4.40;;;11.90;99.90;;;;;;5084976;28;20044;-81
2023/07/25 03:55:55;;;;;;;8.43;3.95;;;12.00;99.90;;;;;;5079702;28;20123;-81
2023/07/25 03:58:21;;;;;;;8.40;4.03;;;12.00;99.90;;;;;;5068309;28;20398;-82
2023/07/25 04:00:46;;;;;;;8.63;4.00;;;12.00;99.90;;;;;;5086435;28;20048;-81
2023/07/25 04:03:12;;;;;;;7.85;4.30;;;12.00;99.90;;;;;;5065950;28;20032;-81
2023/07/25 04:05:37;;;;;;;7.80;3.70;;;12.10;99.90;;;;;;5086474;28;20040;-81
2023/07/25 04:08:03;;;;;;;7.00;4.10;;;12.10;99.90;;;;;;5067640;28;20051;-81
2023/07/25 04:10:29;;;;;;;7.43;3.97;;;12.20;99.90;;;;;;5074029;28;20467;-81
2023/07/25 04:12:54;;;;;;;5.93;4.03;;;12.20;99.90;;;;;;5078691;28;20055;-81
2023/07/25 04:15:20;;;;;;;6.07;4.10;;;12.30;99.90;;;;;;5049402;28;20379;-81
2023/07/25 04:17:45;;;;;;;7.50;3.80;;;12.30;99.90;;;;;;5067603;28;20045;-81
2023/07/25 04:20:11;;;;;;;7.20;3.90;;;12.40;99.90;;;;;;5095359;28;20510;-81
2023/07/25 04:22:38;;;;;;;7.65;4.38;;;12.40;99.90;;;;;;5083746;28;20140;-81
2023/07/25 04:25:04;;;;;;;9.77;4.40;;;12.60;99.90;;;;;;5084555;28;20084;-81
2023/07/25 04:27:32;;;;;;;8.00;4.05;;;12.50;99.90;;;;;;5055137;28;20099;-81
2023/07/25 04:29:58;;;;;;;5.75;4.20;;;12.50;99.90;;;;;;5065958;28;20114;-81
2023/07/25 04:32:23;;;;;;;8.88;6.13;;;12.60;99.90;;;;;;5064949;28;20516;-81
2023/07/25 04:34:49;;;;;;;9.48;3.55;;;12.70;99.90;;;;;;5075863;28;20063;-81
2023/07/25 04:37:15;;;;;;;10.73;3.65;;;12.70;99.90;;;;;;5066073;28;20045;-81
2023/07/25 04:39:40;;;;;;;7.07;3.78;;;12.80;99.90;;;;;;5078624;28;20181;-81
2023/07/25 04:42:06;;;;;;;7.72;3.88;;;12.90;99.90;;;;;;5081068;28;20051;-81
2023/07/25 04:44:32;;;;;;;7.55;3.80;;;12.90;99.90;;;;;;5078833;28;20040;-81
2023/07/25 04:46:57;;;;;;;6.82;3.90;;;12.90;99.90;;;;;;5070625;28;20053;-81
2023/07/25 04:49:25;;;;;;;5.35;3.72;;;13.00;99.90;;;;;;5072675;28;20071;-81
2023/07/25 04:51:50;;;;;;;9.85;3.92;;;13.00;99.90;;;;;;5086063;28;20117;-81
2023/07/25 04:54:16;;;;;;;6.03;3.47;;;13.10;99.90;;;;;;5074183;28;20502;-81
2023/07/25 04:56:42;;;;;;;8.90;3.65;;;13.20;99.90;;;;;;5076390;28;20086;-81
2023/07/25 04:59:08;;;;;;;8.52;4.10;;;13.40;99.90;;;;;;5077854;28;20043;-81
2023/07/25 05:01:33;;;;;;;8.82;3.63;;;13.30;99.90;;;;;;5069950;28;20383;-81
2023/07/25 05:03:59;;;;;;;8.13;3.63;;;13.40;99.90;;;;;;5086102;28;20039;-81
2023/07/25 05:06:25;;;;;;;6.65;3.05;;;13.50;99.90;;;;;;5068651;28;20521;-79
2023/07/25 05:08:50;;;;;;;7.63;3.22;;;14.00;99.90;;;;;;5052327;28;20041;-79
2023/07/25 05:11:16;;;;;;;6.65;3.05;;;13.60;99.90;;;;;;5052336;28;20044;-79
2023/07/25 05:13:41;;;;;;;11.32;3.25;;;13.70;99.90;;;;;;5070211;28;20044;-80
2023/07/25 05:16:07;;;;;;;6.32;2.92;;;13.70;99.90;;;;;;5061598;28;20040;-80
2023/07/25 05:18:33;;;;;;;6.53;3.15;;;13.80;99.90;;;;;;5071118;28;20850;-80
2023/07/25 05:20:59;;;;;;;7.03;2.90;;;13.90;99.90;;;;;;5085837;28;20064;-82
2023/07/25 05:23:24;;;;;;;5.93;3.08;;;13.90;99.90;;;;;;5075668;28;20461;-81
2023/07/25 05:25:50;;;;;;;5.65;2.67;;;14.00;99.90;;;;;;5072668;28;20045;-81
2023/07/25 05:28:18;;;;;;;4.32;2.70;;;14.10;99.90;;;;;;5079565;28;20634;-81
2023/07/25 05:30:43;;;;;;;5.10;2.70;;;14.50;99.90;;;;;;5074437;28;20119;-82
2023/07/25 05:33:09;;;;;;;7.40;2.97;;;14.10;99.90;;;;;;5069659;28;20045;-82
2023/07/25 05:35:35;;;;;;;8.05;2.88;;;14.20;99.90;;;;;;5064095;28;20104;-81
2023/07/25 05:38:01;;;;;;;4.63;2.40;;;14.30;99.90;;;;;;5060728;28;20067;-81
2023/07/25 05:40:26;;;;;;;7.28;2.30;;;14.50;99.90;;;;;;5051694;28;20045;-81
2023/07/25 05:42:52;;;;;;;5.13;2.45;;;14.70;99.90;;;;;;5069212;28;20402;-82
2023/07/25 05:45:18;;;;;;;8.18;3.05;;;15.10;99.90;;;;;;5070505;28;20171;-82
2023/07/25 05:47:43;;;;;;;8.90;2.45;;;16.20;99.90;;;;;;5068510;28;20067;-81
2023/07/25 05:50:09;;;;;;;5.57;2.10;;;17.20;99.90;;;;;;5067769;28;20071;-82
2023/07/25 05:52:35;;;;;;;5.45;2.22;;;17.80;99.90;;;;;;5070606;28;20037;-82
2023/07/25 05:55:04;;;;;;;3.05;1.80;;;18.70;99.90;;;;;;5082318;28;20505;-82
2023/07/25 05:57:30;;;;;;;8.13;2.53;;;19.10;99.90;;;;;;5051742;28;20045;-81
2023/07/25 05:59:55;;;;;;;6.50;2.03;;;19.40;99.90;;;;;;5068469;28;20047;-82
2023/07/25 06:02:21;;;;;;;4.45;2.83;;;19.60;99.90;;;;;;5068760;28;20037;-82
2023/07/25 06:04:47;;;;;;;7.65;1.90;;;19.60;99.90;;;;;;5051211;28;20055;-81
2023/07/25 06:07:13;;;;;;;5.57;2.28;;;19.80;99.90;;;;;;5051789;28;20080;-81
2023/07/25 06:09:39;;;;;;;8.25;2.15;;;19.80;99.90;;;;;;5077465;28;20044;-82
2023/07/25 06:12:09;;;;;;;9.30;2.60;;;19.90;99.90;;;;;;5078031;28;20055;-82
2023/07/25 06:14:35;;;;;;;4.85;1.92;;;20.10;99.90;;;;;;5075926;28;20099;-81
2023/07/25 06:17:01;;;;;;;7.35;1.70;;;20.00;99.90;;;;;;5067989;28;20072;-81
2023/07/25 06:19:27;;;;;;;4.95;1.65;;;20.10;99.90;;;;;;5055037;28;20060;-82
2023/07/25 06:21:52;;;;;;;6.28;1.80;;;20.20;99.90;;;;;;5088160;28;20056;-81
2023/07/25 06:24:19;;;;;;;4.95;1.38;;;20.00;99.90;;;;;;5089008;28;20453;-81
2023/07/25 06:26:45;;;;;;;3.00;1.20;;;19.50;99.90;;;;;;5080468;28;20041;-82
2023/07/25 06:29:10;;;;;;;6.22;1.42;;;19.30;99.90;;;;;;5068578;28;20380;-81
2023/07/25 06:31:36;;;;;;;5.55;1.90;;;18.80;99.90;;;;;;5084449;28;20041;-82
2023/07/25 06:34:02;;;;;;;6.50;1.58;;;18.60;99.90;;;;;;5070902;28;20048;-81
2023/07/25 06:36:28;;;;;;;6.00;1.70;;;18.20;99.90;;;;;;5066642;28;20570;-81
2023/07/25 06:38:53;;;;;;;7.22;1.58;;;18.00;99.90;;;;;;5067615;28;20090;-81
2023/07/25 06:41:19;;;;;;;5.80;1.70;;;17.80;99.90;;;;;;5067067;28;20045;-82
2023/07/25 06:43:44;;;;;;;6.53;1.38;;;17.30;99.90;;;;;;5050589;28;20136;-82
2023/07/25 06:46:10;;;;;;;5.22;1.58;;;17.00;99.90;;;;;;5074667;28;20036;-82
2023/07/25 06:48:35;;;;;;;5.70;1.85;;;16.80;99.90;;;;;;5078756;28;20059;-81
2023/07/25 06:51:01;;;;;;;7.15;1.42;;;16.90;99.90;;;;;;5067829;28;20048;-82
2023/07/25 06:53:27;;;;;;;5.53;1.35;;;16.60;99.90;;;;;;5068012;28;20037;-84
2023/07/25 06:55:52;;;;;;;5.13;1.13;;;16.60;99.90;;;;;;5068694;28;20073;-83
2023/07/25 06:58:18;;;;;;;3.83;1.25;;;16.60;99.90;;;;;;5067159;28;20055;-82
2023/07/25 07:00:46;;;;;;;4.28;1.58;;;16.60;99.90;;;;;;5067990;28;20502;-82
2023/07/25 07:03:11;;;;;;;4.85;1.55;;;16.70;99.90;;;;;;5068960;28;20199;-81
2023/07/25 07:05:37;;;;;;;6.88;1.95;;;16.70;99.90;;;;;;5051807;28;20545;-81
2023/07/25 07:08:02;;;;;;;3.85;1.45;;;16.80;99.90;;;;;;5086627;28;20040;-81
2023/07/25 07:10:29;;;;;;;4.68;1.35;;;16.80;99.90;;;;;;5086258;28;20067;-81
2023/07/25 07:12:54;;;;;;;4.45;1.10;;;16.90;99.90;;;;;;5088015;28;20063;-81
2023/07/25 07:15:26;;;;;;;4.72;1.30;;;16.90;99.90;;;;;;5069221;28;20040;-82
2023/07/25 07:17:53;;;;;;;6.75;1.48;;;17.20;99.90;;;;;;5069024;28;20132;-84
2023/07/25 07:20:19;;;;;;;2.67;1.10;;;17.00;99.90;;;;;;5084241;28;20048;-83
2023/07/25 07:22:44;;;;;;;2.72;0.90;;;17.10;99.90;;;;;;5086846;28;20084;-82
2023/07/25 07:25:10;;;;;;;4.22;0.90;;;17.20;99.90;;;;;;5086782;28;20446;-83
2023/07/25 07:27:36;;;;;;;7.28;1.63;;;17.00;99.90;;;;;;5084762;28;20040;-82
2023/07/25 07:30:03;;;;;;;5.50;0.90;;;17.00;99.90;;;;;;5086353;28;20127;-82
2023/07/25 07:32:28;;;;;;;3.25;0.80;;;17.40;99.90;;;;;;5084938;28;20040;-82
2023/07/25 07:34:54;;;;;;;3.08;0.80;;;17.50;99.90;;;;;;5051101;28;20099;-82
2023/07/25 07:37:20;;;;;;;1.58;0.70;;;17.30;99.90;;;;;;5084777;28;20050;-82
2023/07/25 07:39:45;;;;;;;2.58;0.93;;;17.20;99.90;;;;;;5077544;28;20074;-85
2023/07/25 07:42:11;;;;;;;3.90;1.23;;;17.10;99.90;;;;;;5071985;28;20039;-85
2023/07/25 07:44:36;;;;;;;2.60;0.73;;;17.30;99.90;;;;;;5081739;28;20136;-85
2023/07/25 07:47:02;;;;;;;2.42;0.80;;;17.40;99.90;;;;;;5052864;28;20045;-85
2023/07/25 07:49:28;;;;;;;5.25;0.95;;;17.50;99.90;;;;;;5073522;28;20127;-85
2023/07/25 07:51:53;;;;;;;2.78;0.60;;;17.50;99.90;;;;;;5075955;28;20040;-86
2023/07/25 07:54:22;;;;;;;3.17;0.85;;;17.80;99.90;;;;;;5086742;28;20413;-85
2023/07/25 07:56:47;;;;;;;2.22;0.93;;;17.70;99.90;;;;;;5086814;28;20520;-85
2023/07/25 07:59:13;;;;;;;3.40;0.90;;;17.60;99.90;;;;;;5069380;28;20140;-86
2023/07/25 08:01:39;;;;;;;3.13;0.60;;;17.60;99.90;;;;;;5085862;28;20074;-86
2023/07/25 08:04:04;;;;;;;3.83;0.80;;;17.70;99.90;;;;;;5107118;28;20039;-85
2023/07/25 08:06:31;;;;;;;3.35;0.80;;;17.60;99.90;;;;;;5089357;28;20040;-85
2023/07/25 08:08:56;;;;;;;2.83;0.70;;;17.50;99.90;;;;;;5102695;28;20044;-86
2023/07/25 08:11:22;;;;;;;1.67;0.70;;;17.40;99.90;;;;;;5052777;28;20045;-85
2023/07/25 08:13:47;;;;;;;3.47;0.77;;;17.40;99.90;;;;;;5066737;28;20596;-85
2023/07/25 08:16:13;;;;;;;3.70;0.80;;;17.60;99.90;;;;;;5066344;28;20056;-86
2023/07/25 08:18:39;;;;;;;3.42;0.80;;;17.70;99.90;;;;;;5074984;28;20060;-85
2023/07/25 08:21:04;;;;;;;1.95;0.70;;;17.80;99.90;;;;;;5083535;28;20414;-84
2023/07/25 08:23:30;;;;;;;5.13;0.82;;;18.10;99.90;;;;;;5087453;28;20401;-85
2023/07/25 08:25:56;;;;;;;3.17;0.80;;;18.30;99.90;;;;;;5090459;28;20452;-85
2023/07/25 08:28:22;;;;;;;3.67;0.80;;;18.80;99.90;;;;;;5091564;28;20040;-85
2023/07/25 08:30:48;;;;;;;3.17;0.70;;;18.60;99.90;;;;;;5085126;28;20040;-84
2023/07/25 08:33:15;;;;;;;3.13;0.75;;;18.80;99.80;;;;;;5076246;28;20093;-86
2023/07/25 08:35:41;;;;;;;2.45;0.85;;;19.10;99.00;;;;;;5071952;28;20080;-86
2023/07/25 08:38:07;;;;;;;2.45;0.60;;;18.80;98.60;;;;;;5082282;28;20046;-85
2023/07/25 08:40:33;;;;;;;2.40;0.80;;;18.80;98.10;;;;;;5073012;28;20043;-85
2023/07/25 08:43:07;;;;;;;1.63;0.80;;;18.40;97.30;;;;;;5084711;28;20056;-84
2023/07/25 08:45:34;;;;;;;2.80;1.00;;;18.40;97.20;;;;;;5086921;28;20496;-85
2023/07/25 08:48:04;;;;;;;1.42;0.60;;;18.70;98.20;;;;;;5071521;28;20103;-86
2023/07/25 08:50:32;;;;;;;3.67;0.73;;;18.90;97.00;;;;;;5089283;28;20054;-84
2023/07/25 08:53:01;;;;;;;2.80;0.88;;;18.90;97.00;;;;;;5084605;28;20052;-84
2023/07/25 08:55:27;;;;;;;2.60;0.82;;;19.00;97.40;;;;;;5070599;28;20045;-86
2023/07/25 08:57:52;;;;;;;3.05;0.80;;;19.00;97.50;;;;;;5074618;28;20047;-84
2023/07/25 09:00:18;;;;;;;3.13;0.95;;;18.70;97.30;;;;;;5090751;28;20048;-86
2023/07/25 09:02:44;;;;;;;3.85;0.70;;;18.60;97.40;;;;;;5085976;28;20054;-86
2023/07/25 09:05:10;;;;;;;3.20;0.88;;;18.50;96.80;;;;;;5082516;28;20048;-85
2023/07/25 09:07:35;;;;;;;1.98;0.70;;;18.30;96.90;;;;;;5087190;28;20068;-86
2023/07/25 09:10:02;;;;;;;2.55;0.80;;;18.30;97.20;;;;;;5078566;28;20134;-85
2023/07/25 09:12:28;;;;;;;2.47;0.80;;;18.40;97.20;;;;;;5082492;28;20127;-85
2023/07/25 09:14:56;;;;;;;1.77;0.73;;;18.60;96.60;;;;;;5083155;28;20105;-85
2023/07/25 09:17:25;;;;;;;2.95;0.90;;;18.90;96.10;;;;;;5090745;28;20047;-85
2023/07/25 09:19:54;;;;;;;2.55;0.63;;;19.10;95.00;;;;;;5086170;28;20056;-84
2023/07/25 09:22:30;;;;;;;1.63;0.65;;;19.40;94.70;;;;;;5077151;28;20045;-85
2023/07/25 09:24:57;;;;;;;4.45;1.20;;;19.60;93.20;;;;;;5067471;28;20049;-85
2023/07/25 09:27:22;;;;;;;1.27;0.60;;;20.00;92.90;;;;;;5066896;28;20051;-84
2023/07/25 09:29:52;;;;;;;1.92;0.70;;;19.80;91.50;;;;;;5066818;28;20397;-86
2023/07/25 09:32:24;;;;;;;2.67;0.85;;;19.70;90.80;;;;;;5066658;28;20052;-85
2023/07/25 09:34:58;;;;;;;2.00;0.52;;;19.70;91.60;;;;;;5066347;28;20132;-84
2023/07/25 09:37:24;;;;;;;3.65;0.70;;;20.10;91.10;;;;;;5050653;28;20060;-85
2023/07/25 09:39:54;;;;;;;2.78;0.60;;;19.90;91.10;;;;;;5068282;28;20449;-85
2023/07/25 09:42:22;;;;;;;2.50;0.70;;;19.80;90.80;;;;;;5081532;28;20082;-84
2023/07/25 09:44:49;;;;;;;2.38;0.60;;;19.70;90.40;;;;;;5074275;28;20143;-85
2023/07/25 09:47:23;;;;;;;2.28;0.80;;;20.00;89.60;;;;;;5070372;28;20040;-82
2023/07/25 09:49:54;;;;;;;1.58;0.60;;;19.90;88.30;;;;;;5086023;28;20051;-82
2023/07/25 09:52:21;;;;;;;1.60;0.50;;;20.00;88.60;;;;;;5088778;28;20148;-84
2023/07/25 09:54:46;;;;;;;1.90;0.70;;;20.10;87.40;;;;;;5089766;28;20048;-83
2023/07/25 09:57:12;;;;;;;2.72;0.60;;;20.10;88.10;;;;;;5088532;28;20047;-82
2023/07/25 09:59:38;;;;;;;1.98;0.60;;;20.20;87.20;;;;;;5078857;28;20500;-84
2023/07/25 10:02:04;;;;;;;2.92;0.68;;;20.60;86.60;;;;;;5070694;28;20036;-84
2023/07/25 10:04:30;;;;;;;1.42;0.60;;;20.30;85.90;;;;;;5067913;28;20754;-85
2023/07/25 10:06:59;;;;;;;1.98;0.60;;;20.30;84.00;;;;;;5069171;28;20067;-85
2023/07/25 10:09:26;;;;;;;1.67;0.60;;;20.40;81.90;;;;;;5082550;28;20032;-86
2023/07/25 10:11:53;;;;;;;1.00;0.70;;;20.70;82.10;;;;;;5084944;28;20189;-88
2023/07/25 10:14:19;;;;;;;3.85;0.70;;;20.60;81.40;;;;;;5091082;28;20078;-84
2023/07/25 10:16:45;;;;;;;2.33;0.63;;;21.00;80.60;;;;;;5094273;28;20048;-82
2023/07/25 10:19:11;;;;;;;1.90;0.50;;;20.80;76.90;;;;;;5089486;28;20044;-82
2023/07/25 10:21:48;;;;;;;2.20;0.80;;;20.90;77.50;;;;;;5086549;28;20119;-82
2023/07/25 10:24:15;;;;;;;2.42;0.70;;;20.90;75.60;;;;;;5086861;28;20036;-83
2023/07/25 10:26:57;;;;;;;4.53;0.82;;;20.90;77.90;;;;;;5075101;28;20037;-83
2023/07/25 10:29:43;;;;;;;1.27;0.70;;;21.00;76.00;;;;;;5081552;28;20082;-84
2023/07/25 10:32:14;;;;;;;2.80;0.80;;;20.90;77.50;;;;;;5093228;28;20040;-86
2023/07/25 10:34:51;;;;;;;2.85;0.80;;;20.70;79.20;;;;;;5053710;28;20086;-84
2023/07/25 10:37:35;;;;;;;3.03;0.70;;;20.90;78.80;;;;;;5074521;28;20082;-83
2023/07/25 10:40:14;;;;;;;2.22;0.80;;;20.50;79.20;;;;;;5080264;28;20036;-84
2023/07/25 10:42:44;;;;;;;1.60;0.70;;;20.70;80.30;;;;;;5082806;28;20040;-83
2023/07/25 10:45:44;;;;;;;4.15;0.80;;;20.50;81.40;;;;;;5077301;28;20044;-83
2023/07/25 10:48:30;;;;;;;1.50;0.68;;;20.70;79.40;;;;;;5089167;28;20054;-84
2023/07/25 10:50:57;;;;;;;1.63;0.80;;;20.70;77.50;;;;;;5082097;28;20162;-85
2023/07/25 10:53:25;;;;;;;2.13;0.70;;;20.40;78.90;;;;;;5079288;28;20105;-83
2023/07/25 10:56:02;;;;;;;3.10;0.85;;;20.60;79.00;;;;;;5091840;28;20048;-85
2023/07/25 10:58:29;;;;;;;0.95;0.65;;;20.00;77.80;;;;;;5085883;28;20107;-84
2023/07/25 11:00:55;;;;;;;1.90;0.68;;;20.00;79.70;;;;;;5076745;28;20048;-84
2023/07/25 11:03:32;;;;;;;1.88;0.80;;;20.20;80.30;;;;;;5092012;28;20401;-85
2023/07/25 11:06:06;;;;;;;1.30;0.80;;;20.20;78.90;;;;;;5091624;28;20055;-83
2023/07/25 11:08:32;;;;;;;2.33;0.80;;;20.10;78.80;;;;;;5087571;28;20083;-85
2023/07/25 11:11:08;;;;;;;1.73;0.70;;;20.10;79.20;;;;;;5088437;28;20130;-84
2023/07/25 11:13:35;;;;;;;2.45;0.63;;;20.10;77.60;;;;;;5072362;28;20040;-83
2023/07/25 11:16:01;;;;;;;4.32;0.63;;;20.10;76.90;;;;;;5071365;28;20032;-84
2023/07/25 11:18:27;;;;;;;2.22;0.63;;;20.00;76.60;;;;;;5085878;28;20051;-84
2023/07/25 11:21:07;;;;;;;1.15;0.60;;;20.10;77.00;;;;;;5074149;28;20040;-83
2023/07/25 11:23:35;;;;;;;2.65;0.80;;;20.50;80.40;;;;;;5087304;28;20087;-86
2023/07/25 11:26:03;;;;;;;4.40;1.10;;;20.60;79.40;;;;;;5089473;28;20602;-85
2023/07/25 11:28:32;;;;;;;3.20;0.93;;;20.60;79.10;;;;;;5089529;28;20046;-84
2023/07/25 11:30:58;;;;;;;1.05;0.70;;;20.50;78.80;;;;;;5053680;28;20062;-83
2023/07/25 11:33:24;;;;;;;1.95;0.68;;;20.50;78.60;;;;;;5068659;28;20458;-85
2023/07/25 11:35:57;;;;;;;0.95;0.40;;;20.50;77.80;;;;;;5055746;28;20977;-86
2023/07/25 11:38:23;;;;;;;1.10;0.60;;;20.50;72.40;;;;;;5077189;28;20474;-85
2023/07/25 11:40:51;;;;;;;3.10;0.90;;;20.60;73.40;;;;;;5087532;28;20051;-85
2023/07/25 11:43:17;;;;;;;1.50;0.70;;;20.90;73.60;;;;;;5087474;28;20072;-84
2023/07/25 11:45:47;;;;;;;4.95;0.90;;;20.80;74.40;;;;;;5085516;28;20489;-84
2023/07/25 11:48:18;;;;;;;1.35;0.73;;;20.90;74.00;;;;;;5066938;28;20045;-84
2023/07/25 11:50:48;;;;;;;6.38;2.15;;;21.00;73.30;;;;;;5066919;28;20119;-82
2023/07/25 11:53:20;;;;;;;3.45;0.90;;;21.20;74.00;;;;;;5052794;28;20056;-83
2023/07/25 11:55:46;;;;;;;1.48;0.63;;;21.50;74.50;;;;;;5067617;28;20324;-80
2023/07/25 11:58:17;;;;;;;2.08;0.93;;;21.50;73.40;;;;;;5068712;28;20124;-79
2023/07/25 12:00:43;;;;;;;2.33;0.60;;;21.30;71.20;;;;;;5066292;28;20048;-80
2023/07/25 12:03:19;;;;;;;1.33;0.68;;;21.20;72.50;;;;;;5069329;28;20049;-81
2023/07/25 12:06:00;;;;;;;5.05;0.80;;;20.90;71.90;;;;;;5067060;28;20080;-81
2023/07/25 12:08:30;;;;;;;2.03;0.70;;;20.90;72.70;;;;;;5066784;28;20064;-82
2023/07/25 12:10:56;;;;;;;2.58;0.77;;;20.40;73.10;;;;;;5067350;28;20133;-86
2023/07/25 12:13:21;;;;;;;1.70;0.70;;;20.20;74.50;;;;;;5067007;28;20128;-84
2023/07/25 12:15:51;;;;;;;7.45;1.10;;;20.20;75.00;;;;;;5065826;28;20058;-84
2023/07/25 12:18:26;;;;;;;1.27;0.80;;;20.20;75.50;;;;;;5082084;28;20068;-83
2023/07/25 12:20:52;;;;;;;3.72;0.90;;;20.10;74.90;;;;;;5093120;28;20063;-82
2023/07/25 12:23:29;;;;;;;2.58;0.77;;;20.10;75.60;;;;;;5086972;28;20122;-84
2023/07/25 12:25:56;;;;;;;4.03;0.80;;;20.00;74.90;;;;;;5056064;28;20040;-84
2023/07/25 12:28:22;;;;;;;1.05;0.68;;;20.10;75.10;;;;;;5085675;28;20518;-84
2023/07/25 12:30:48;;;;;;;3.50;0.85;;;20.20;75.30;;;;;;5067749;28;20056;-83
2023/07/25 12:33:14;;;;;;;1.70;0.63;;;20.20;74.60;;;;;;5066643;28;20052;-84
2023/07/25 12:35:40;;;;;;;2.15;0.73;;;20.30;73.70;;;;;;5077167;28;20045;-84
2023/07/25 12:38:05;;;;;;;3.40;0.60;;;20.30;73.70;;;;;;5067775;28;20131;-84
2023/07/25 12:40:31;;;;;;;3.17;0.80;;;20.30;73.70;;;;;;5067258;28;20119;-83
2023/07/25 12:42:56;;;;;;;10.27;1.50;;;20.40;74.30;;;;;;5075265;28;20117;-83
2023/07/25 12:45:22;;;;;;;11.55;1.88;;;20.50;75.00;;;;;;5087593;28;20047;-83